Time;durP1;ratioP1;P1;durP2;ratioP2;P2;SDS_P1;SDS_P2;PMS_P1;PMS_P2;Temp;Humidity;BMP_temperature;BMP_pressure;BME280_temperature;BME280_humidity;BME280_pressure;Samples;Min_cycle;Max_cycle;Signal;HPM_P1;HPM_P2
2021/11/04 00:00:51;;;;;;;5.75;3.75;;;;;;;10.42;73.14;95443.52;1809641;77;21025;-82
2021/11/04 00:03:17;;;;;;;4.17;3.65;;;;;;;10.41;72.67;95445.31;1847773;77;21027;-82
2021/11/04 00:05:43;;;;;;;5.37;4.28;;;;;;;10.41;72.73;95437.52;1809549;77;21080;-82
2021/11/04 00:08:08;;;;;;;5.15;3.70;;;;;;;10.40;73.04;95436.40;1856007;76;21423;-82
2021/11/04 00:10:34;;;;;;;6.25;4.80;;;;;;;10.39;72.24;95440.00;1809203;76;21075;-82
2021/11/04 00:13:00;;;;;;;5.28;4.40;;;;;;;10.41;71.86;95431.03;1801120;77;20998;-81
2021/11/04 00:15:26;;;;;;;5.80;4.35;;;;;;;10.43;72.23;95432.92;1837847;77;21104;-82
2021/11/04 00:17:52;;;;;;;7.20;4.83;;;;;;;10.43;72.32;95439.91;1787710;78;21439;-82
2021/11/04 00:20:18;;;;;;;4.22;3.27;;;;;;;10.40;72.25;95435.90;1846181;77;21046;-82
2021/11/04 00:22:44;;;;;;;5.28;3.58;;;;;;;10.42;72.73;95443.52;1826549;76;21064;-82
2021/11/04 00:25:10;;;;;;;7.75;3.85;;;;;;;10.39;72.35;95443.39;1815509;77;21026;-82
2021/11/04 00:27:36;;;;;;;5.53;3.80;;;;;;;10.38;72.61;95433.21;1821872;78;21060;-82
2021/11/04 00:30:05;;;;;;;4.80;3.77;;;;;;;10.31;72.47;95424.15;1801637;79;21465;-82
2021/11/04 00:32:30;;;;;;;6.08;3.98;;;;;;;10.27;73.12;95433.85;1845170;77;21043;-81
2021/11/04 00:34:56;;;;;;;4.30;3.90;;;;;;;10.20;73.33;95433.31;1854670;77;21398;-82
2021/11/04 00:39:49;;;;;;;6.15;3.72;;;;;;;10.09;73.43;95416.28;1805044;77;21096;-82
2021/11/04 00:42:14;;;;;;;4.80;3.22;;;;;;;10.06;73.66;95408.38;1799147;78;21359;-82
2021/11/04 00:44:41;;;;;;;5.80;4.03;;;;;;;10.04;73.64;95398.70;1816164;77;21421;-82
2021/11/04 00:47:07;;;;;;;6.12;4.25;;;;;;;10.03;73.77;95382.83;1818707;77;21130;-81
2021/11/04 00:49:33;;;;;;;5.85;4.20;;;;;;;10.02;73.51;95394.71;1833861;77;21038;-82
2021/11/04 00:51:59;;;;;;;4.75;3.80;;;;;;;9.99;73.75;95401.11;1832227;77;21008;-82
2021/11/04 00:54:25;;;;;;;6.97;4.95;;;;;;;9.97;73.84;95403.11;1838221;75;21143;-82
2021/11/04 00:56:50;;;;;;;5.83;3.83;;;;;;;9.93;73.79;95405.81;1864771;76;21052;-82
2021/11/04 00:59:16;;;;;;;5.33;3.47;;;;;;;9.89;73.97;95400.20;1849008;76;21496;-82
2021/11/04 01:01:42;;;;;;;7.80;4.50;;;;;;;9.87;74.06;95391.83;1845769;76;21062;-83
2021/11/04 01:04:08;;;;;;;4.70;3.95;;;;;;;9.83;73.76;95370.39;1800887;79;21389;-82
2021/11/04 01:06:33;;;;;;;7.37;4.10;;;;;;;9.85;74.08;95365.29;1788870;79;21034;-81
2021/11/04 01:08:59;;;;;;;4.67;3.80;;;;;;;9.77;74.40;95360.83;1814344;78;21124;-82
2021/11/04 01:11:25;;;;;;;4.25;3.42;;;;;;;9.77;74.40;95360.83;1822711;78;20979;-82
2021/11/04 01:13:51;;;;;;;4.55;4.03;;;;;;;9.72;74.35;95370.98;1827798;76;21033;-82
2021/11/04 01:16:18;;;;;;;5.40;4.08;;;;;;;9.68;74.06;95369.80;1800303;79;21100;-82
2021/11/04 01:18:45;;;;;;;6.40;3.22;;;;;;;9.72;74.08;95376.97;1812770;78;21442;-82
2021/11/04 01:21:11;;;;;;;4.67;3.25;;;;;;;9.76;74.14;95373.47;1823498;78;21042;-82
2021/11/04 01:23:37;;;;;;;3.75;3.33;;;;;;;9.78;74.21;95363.72;1780358;79;20987;-82
2021/11/04 01:26:03;;;;;;;4.30;3.90;;;;;;;9.79;74.31;95373.89;1791823;79;21086;-82
2021/11/04 01:28:29;;;;;;;5.85;4.12;;;;;;;9.83;74.26;95367.80;1791935;80;21110;-82
2021/11/04 01:30:55;;;;;;;6.25;4.25;;;;;;;9.86;73.96;95368.68;1810074;76;21384;-82
2021/11/04 01:33:22;;;;;;;5.37;4.47;;;;;;;9.89;74.20;95369.07;1833985;76;21069;-82
2021/11/04 01:35:47;;;;;;;6.42;4.20;;;;;;;9.87;74.06;95367.68;1842307;76;21025;-82
2021/11/04 01:38:14;;;;;;;4.65;3.52;;;;;;;9.89;74.25;95370.36;1852333;76;21400;-82
2021/11/04 01:40:39;;;;;;;5.12;3.72;;;;;;;9.90;74.36;95358.19;1809928;77;21164;-81
2021/11/04 01:43:06;;;;;;;4.47;3.27;;;;;;;9.88;73.97;95358.39;1835560;77;21179;-81
2021/11/04 01:45:32;;;;;;;6.47;4.22;;;;;;;9.93;74.44;95353.92;1822692;77;21056;-82
2021/11/04 01:48:00;;;;;;;4.80;3.77;;;;;;;9.89;74.21;95337.94;1805699;77;21157;-82
2021/11/04 01:50:26;;;;;;;6.30;3.87;;;;;;;9.89;74.54;95359.19;1779376;78;21133;-82
2021/11/04 01:52:52;;;;;;;5.03;4.03;;;;;;;9.87;74.71;95349.52;1825476;77;21139;-82
2021/11/04 01:55:23;;;;;;;4.58;4.05;;;;;;;9.84;74.69;95341.64;1833129;77;21549;-82
2021/11/04 01:57:50;;;;;;;4.93;3.47;;;;;;;9.79;75.14;95326.39;1783929;79;21071;-82
2021/11/04 02:00:18;;;;;;;4.58;3.12;;;;;;;9.77;75.40;95321.91;1800405;78;21002;-82
2021/11/04 02:02:46;;;;;;;4.20;3.15;;;;;;;9.76;75.14;95319.82;1788902;78;21108;-82
2021/11/04 02:05:16;;;;;;;5.78;3.92;;;;;;;9.78;75.37;95304.05;1766590;79;21091;-82
2021/11/04 02:10:32;;;;;;;6.33;4.50;;;;;;;9.80;75.57;95296.86;1804903;77;21092;-82
2021/11/04 02:13:25;;;;;;;4.85;3.37;;;;;;;9.78;75.52;95272.92;1824030;78;21064;-82
2021/11/04 02:15:54;;;;;;;4.72;3.58;;;;;;;9.77;74.97;95263.05;1809180;78;21046;-82
2021/11/04 02:18:20;;;;;;;6.20;4.40;;;;;;;9.84;75.49;95250.05;1813882;78;21152;-82
2021/11/04 02:23:31;;;;;;;4.12;3.22;;;;;;;9.88;75.44;95225.27;1800662;76;21076;-82
2021/11/04 02:25:56;;;;;;;5.67;3.50;;;;;;;9.97;74.85;95219.37;1868083;75;21617;-82
2021/11/04 02:28:23;;;;;;;4.67;3.80;;;;;;;10.07;73.66;95210.12;1823972;77;21032;-81
2021/11/04 02:30:49;;;;;;;4.37;3.95;;;;;;;10.15;74.40;95215.09;1831355;77;21183;-82
2021/11/04 02:33:20;;;;;;;6.70;3.58;;;;;;;10.18;74.33;95218.56;1864242;76;21633;-82
2021/11/04 02:35:49;;;;;;;5.75;4.25;;;;;;;10.16;75.02;95223.17;1846844;76;21117;-82
2021/11/04 02:38:18;;;;;;;3.05;2.30;;;;;;;10.17;74.09;95224.76;1846332;75;21056;-82
2021/11/04 02:40:44;;;;;;;3.90;2.98;;;;;;;10.22;74.42;95229.35;1842255;77;21092;-82
2021/11/04 02:43:09;;;;;;;5.08;3.33;;;;;;;10.22;74.60;95224.95;1793126;77;21041;-82
2021/11/04 02:45:35;;;;;;;3.85;3.30;;;;;;;10.19;74.87;95238.33;1851898;77;21456;-82
2021/11/04 02:48:01;;;;;;;5.15;3.75;;;;;;;10.15;75.07;95217.69;1832606;77;21068;-82
2021/11/04 02:50:27;;;;;;;7.28;4.10;;;;;;;10.13;74.66;95232.67;1850692;76;21380;-82
2021/11/04 02:52:55;;;;;;;5.22;3.60;;;;;;;10.17;74.28;95230.45;1825988;76;21029;-82
2021/11/04 02:55:37;;;;;;;5.80;3.60;;;;;;;10.21;75.08;95226.46;1806911;79;21108;-82
2021/11/04 02:58:08;;;;;;;6.92;3.65;;;;;;;10.20;75.80;95230.83;1798748;78;21095;-81
2021/11/04 03:00:37;;;;;;;4.45;3.08;;;;;;;10.16;74.90;95215.37;1820948;76;21092;-82
2021/11/04 03:03:03;;;;;;;6.15;4.05;;;;;;;10.19;75.75;95231.83;1821599;77;21014;-82
2021/11/04 03:05:29;;;;;;;4.28;3.25;;;;;;;10.18;75.45;95217.27;1828512;77;21060;-82
2021/11/04 03:07:54;;;;;;;5.03;3.45;;;;;;;10.19;75.65;95222.75;1847510;77;21068;-82
2021/11/04 03:10:20;;;;;;;4.62;3.08;;;;;;;10.15;76.07;95223.38;1812004;77;21413;-82
2021/11/04 03:12:46;;;;;;;4.20;3.00;;;;;;;10.30;75.50;95220.55;1774765;79;21096;-82
2021/11/04 03:15:19;;;;;;;3.65;3.10;;;;;;;10.57;75.00;95232.86;1788917;78;21082;-82
2021/11/04 03:17:47;;;;;;;6.42;4.78;;;;;;;10.65;74.68;95216.53;1806102;78;21094;-82
2021/11/04 03:20:15;;;;;;;7.95;4.87;;;;;;;10.66;74.00;95217.33;1802882;76;21064;-82
2021/11/04 03:22:41;;;;;;;8.13;6.00;;;;;;;10.60;73.54;95219.47;1824614;77;21096;-82
2021/11/04 03:25:07;;;;;;;7.47;5.75;;;;;;;10.53;73.59;95233.78;1782878;79;21029;-82
2021/11/04 03:27:33;;;;;;;8.43;6.35;;;;;;;10.50;73.92;95237.59;1774503;79;21101;-82
2021/11/04 03:30:02;;;;;;;8.60;6.67;;;;;;;10.46;73.31;95233.04;1764074;79;21453;-82
2021/11/04 03:32:29;;;;;;;8.93;6.75;;;;;;;10.32;73.60;95223.22;1773531;80;21032;-82
2021/11/04 03:34:55;;;;;;;8.13;6.50;;;;;;;10.26;73.38;95221.97;1792649;78;21095;-82
2021/11/04 03:37:21;;;;;;;11.95;7.75;;;;;;;10.19;72.97;95210.27;1822013;77;21083;-82
2021/11/04 03:39:47;;;;;;;10.98;7.08;;;;;;;10.16;73.18;95215.37;1800229;78;21110;-82
2021/11/04 03:42:13;;;;;;;8.85;7.40;;;;;;;10.11;73.70;95204.83;1802148;77;21044;-82
2021/11/04 03:44:40;;;;;;;11.05;6.90;;;;;;;10.01;73.61;95197.98;1822676;77;21048;-82
2021/11/04 03:47:06;;;;;;;8.45;5.78;;;;;;;9.99;74.20;95194.00;1814585;78;21109;-82
2021/11/04 03:49:32;;;;;;;5.85;4.97;;;;;;;9.95;74.41;95187.14;1834636;76;21493;-82
2021/11/04 03:51:58;;;;;;;6.03;4.72;;;;;;;9.89;74.87;95184.84;1821466;76;21122;-82
2021/11/04 03:54:24;;;;;;;5.85;3.90;;;;;;;9.88;75.05;95174.68;1826870;77;21039;-82
2021/11/04 03:56:50;;;;;;;5.00;4.42;;;;;;;9.89;75.34;95172.38;1851402;77;21010;-82
2021/11/04 03:59:16;;;;;;;5.37;3.58;;;;;;;9.93;75.31;95180.06;1804573;77;21035;-82
2021/11/04 04:01:42;;;;;;;5.72;3.60;;;;;;;9.97;75.70;95168.77;1824822;77;21064;-82
2021/11/04 04:04:08;;;;;;;3.27;2.55;;;;;;;9.96;75.98;95159.39;1800136;77;21048;-82
2021/11/04 04:06:35;;;;;;;4.25;3.42;;;;;;;9.96;75.62;95142.52;1778659;77;21431;-82
2021/11/04 04:09:02;;;;;;;4.53;3.52;;;;;;;10.03;75.85;95144.06;1795219;78;21101;-82
2021/11/04 04:11:28;;;;;;;5.80;3.05;;;;;;;10.02;75.73;95124.31;1845442;77;21483;-82
2021/11/04 04:13:55;;;;;;;4.92;3.22;;;;;;;9.99;76.06;95119.55;1827815;77;21452;-82
2021/11/04 04:16:22;;;;;;;2.98;2.35;;;;;;;9.98;75.92;95117.16;1799082;77;21154;-82
2021/11/04 04:18:49;;;;;;;5.05;3.27;;;;;;;10.04;76.12;95105.94;1833873;77;21092;-82
2021/11/04 04:21:15;;;;;;;3.70;2.42;;;;;;;10.02;75.99;95117.83;1843884;77;21005;-82
2021/11/04 04:23:41;;;;;;;3.00;2.55;;;;;;;10.10;76.25;95121.48;1860002;76;21045;-82
2021/11/04 04:26:07;;;;;;;4.40;2.55;;;;;;;10.38;76.37;95121.11;1827800;77;21055;-82
2021/11/04 04:28:33;;;;;;;3.75;2.90;;;;;;;10.44;75.73;95129.38;1794936;77;21123;-82
2021/11/04 04:30:59;;;;;;;3.02;2.47;;;;;;;10.40;75.49;95124.79;1795307;77;21015;-82
2021/11/04 04:33:24;;;;;;;2.83;2.17;;;;;;;10.37;75.30;95110.44;1794735;78;21036;-82
2021/11/04 04:35:51;;;;;;;3.42;3.08;;;;;;;10.36;75.51;95107.55;1818727;78;21061;-82
2021/11/04 04:38:18;;;;;;;5.47;4.92;;;;;;;10.33;75.16;95118.86;1819520;78;21104;-82
2021/11/04 04:40:44;;;;;;;5.35;3.67;;;;;;;10.29;75.19;95121.09;1797954;78;21405;-82
2021/11/04 04:43:10;;;;;;;3.05;2.65;;;;;;;10.25;75.17;95106.13;1804567;77;22238;-82
2021/11/04 04:45:36;;;;;;;3.40;3.10;;;;;;;;;;1796751;77;21035;-81
2021/11/04 04:48:02;;;;;;;3.80;3.10;;;;;;;10.13;75.33;95105.48;1804362;79;21061;-81
2021/11/04 04:50:28;;;;;;;3.22;2.62;;;;;;;10.14;75.31;95108.37;1821017;78;21589;-81
2021/11/04 04:52:53;;;;;;;4.87;3.52;;;;;;;10.18;75.26;95108.23;1827734;76;21107;-82
2021/11/04 04:55:19;;;;;;;4.33;3.00;;;;;;;10.20;75.06;95090.66;1824687;77;21081;-82
2021/11/04 04:57:45;;;;;;;3.52;2.70;;;;;;;10.23;75.05;95085.06;1830824;76;21131;-82
2021/11/04 05:00:12;;;;;;;3.15;2.62;;;;;;;10.22;75.12;95097.75;1813690;78;21073;-82
2021/11/04 05:02:39;;;;;;;3.50;3.00;;;;;;;10.15;75.25;95086.60;1824224;78;21444;-82
2021/11/04 05:05:06;;;;;;;3.17;2.20;;;;;;;;;;1830253;76;21057;-82
2021/11/04 05:07:33;;;;;;;3.85;2.50;;;;;;;10.11;75.51;95078.95;1848400;76;21456;-82
2021/11/04 05:09:59;;;;;;;4.37;2.42;;;;;;;10.11;75.39;95069.87;1855975;77;21037;-82
2021/11/04 05:12:25;;;;;;;3.37;2.33;;;;;;;10.10;75.40;95069.58;1821588;77;21080;-82
2021/11/04 05:14:51;;;;;;;4.08;2.65;;;;;;;10.05;75.57;95040.05;1861272;76;21119;-82
2021/11/04 05:17:17;;;;;;;3.50;2.80;;;;;;;9.95;75.63;95026.27;1809492;77;21130;-82
2021/11/04 05:19:43;;;;;;;3.25;2.60;;;;;;;9.90;76.17;95001.43;1816722;77;20997;-82
2021/11/04 05:22:08;;;;;;;2.80;2.10;;;;;;;9.88;76.17;95001.64;1835859;77;21066;-82
2021/11/04 05:24:35;;;;;;;2.33;1.90;;;;;;;9.97;76.54;94992.32;1800985;79;21064;-82
2021/11/04 05:27:03;;;;;;;3.22;2.40;;;;;;;10.01;76.93;94971.42;1813524;77;21600;-82
2021/11/04 05:29:30;;;;;;;3.37;3.00;;;;;;;10.15;76.70;94954.73;1820339;77;21421;-82
2021/11/04 05:31:58;;;;;;;4.33;2.83;;;;;;;10.21;76.52;94966.38;1822140;77;21042;-82
2021/11/04 05:34:23;;;;;;;3.85;2.67;;;;;;;10.27;76.76;94945.27;1846312;77;21443;-82
2021/11/04 05:36:49;;;;;;;4.22;2.90;;;;;;;10.34;76.67;94968.56;1849630;77;21084;-82
2021/11/04 05:39:15;;;;;;;4.45;2.50;;;;;;;10.48;77.05;94949.26;1830239;77;21002;-82
2021/11/04 05:41:41;;;;;;;5.25;2.42;;;;;;;10.58;76.73;94981.23;1855987;77;21045;-82
2021/11/04 05:44:07;;;;;;;4.30;2.62;;;;;;;10.76;76.92;94963.05;1824541;77;21059;-82
2021/11/04 05:46:33;;;;;;;2.77;2.47;;;;;;;10.85;76.54;94976.02;1812189;77;21017;-82
2021/11/04 05:48:58;;;;;;;4.12;2.80;;;;;;;10.89;76.76;94964.69;1781011;78;21491;-81
2021/11/04 05:51:24;;;;;;;4.05;2.83;;;;;;;10.92;76.50;94998.06;1829902;78;22133;-82
2021/11/04 05:53:50;;;;;;;5.45;2.87;;;;;;;11.15;76.51;94960.98;1805719;78;21007;-82
2021/11/04 05:56:16;;;;;;;2.52;2.20;;;;;;;11.30;75.78;94984.28;1820205;76;21422;-82
2021/11/04 06:01:28;;;;;;;5.42;2.42;;;;;;;11.40;75.36;94964.27;1824072;77;23242;-82
2021/11/04 06:03:52;;;;;;;3.45;3.02;;;;;;;11.42;75.40;94977.84;1757508;80;21117;-82
2021/11/04 06:06:18;;;;;;;3.65;2.75;;;;;;;11.52;75.28;94981.19;1769808;80;21061;-82
2021/11/04 06:08:43;;;;;;;4.33;3.08;;;;;;;11.54;74.76;94981.76;1769357;78;21084;-82
2021/11/04 06:11:09;;;;;;;3.92;3.05;;;;;;;11.60;74.63;94969.19;1758266;79;21050;-82
2021/11/04 06:13:35;;;;;;;4.55;3.50;;;;;;;11.60;74.26;94963.47;1771782;80;21099;-82
2021/11/04 06:16:01;;;;;;;4.75;3.25;;;;;;;11.58;74.55;94949.90;1793491;78;21083;-82
2021/11/04 06:18:27;;;;;;;11.75;4.17;;;;;;;11.60;74.67;94939.27;1754598;80;21021;-82
2021/11/04 06:20:53;;;;;;;4.20;2.83;;;;;;;11.58;74.80;94944.70;1730308;82;21590;-82
2021/11/04 06:23:19;;;;;;;4.28;2.80;;;;;;;11.57;75.33;94952.72;1779250;80;21214;-82
2021/11/04 06:25:44;;;;;;;2.20;1.67;;;;;;;11.66;74.92;94951.38;1774583;79;21540;-82
2021/11/04 06:28:10;;;;;;;6.35;4.08;;;;;;;11.76;74.83;94940.44;1786157;79;21442;-82
2021/11/04 06:30:37;;;;;;;13.00;11.93;;;;;;;11.97;74.42;94956.84;1752545;80;21191;-82
2021/11/04 06:33:03;;;;;;;4.22;2.92;;;;;;;12.16;74.08;94984.88;1778230;80;21565;-82
2021/11/04 06:35:28;;;;;;;6.35;4.53;;;;;;;12.36;73.83;94949.38;1791270;79;21032;-82
2021/11/04 06:37:56;;;;;;;5.53;4.50;;;;;;;12.44;73.59;94940.72;1769167;80;21470;-82
2021/11/04 06:40:26;;;;;;;4.72;3.40;;;;;;;12.50;73.23;94956.73;1762043;79;21171;-82
2021/11/04 06:42:49;;;;;;;4.20;2.85;;;;;;;12.57;72.91;94958.72;1740200;81;21158;-82
2021/11/04 06:45:15;;;;;;;3.52;2.60;;;;;;;12.69;72.79;94953.98;1736431;80;21152;-82
2021/11/04 06:47:47;;;;;;;3.42;2.62;;;;;;;12.79;72.39;94981.57;1780325;79;21124;-82
2021/11/04 06:50:16;;;;;;;5.25;3.60;;;;;;;12.85;71.89;94971.52;1756460;80;21090;-82
2021/11/04 06:55:34;;;;;;;4.10;2.40;;;;;;;12.86;71.29;94998.69;1757831;79;21048;-82
2021/11/04 06:58:02;;;;;;;2.75;2.00;;;;;;;13.00;71.38;94991.38;1776386;80;21067;-82
2021/11/04 07:00:31;;;;;;;3.05;2.10;;;;;;;13.05;70.71;94999.33;1756228;79;21374;-82
2021/11/04 07:03:07;;;;;;;2.98;1.85;;;;;;;13.11;70.72;95017.16;1769190;80;21051;-82
2021/11/04 07:05:33;;;;;;;4.47;2.10;;;;;;;13.20;70.08;95017.13;1778589;79;21048;-82
2021/11/04 07:08:01;;;;;;;3.00;2.17;;;;;;;13.29;70.26;94982.33;1761804;81;21052;-82
2021/11/04 07:10:26;;;;;;;2.87;2.35;;;;;;;13.35;70.23;94981.42;1748804;80;21111;-82
2021/11/04 07:12:52;;;;;;;2.35;2.15;;;;;;;13.42;69.89;94983.37;1772136;80;21494;-82
2021/11/04 07:15:20;;;;;;;2.47;1.95;;;;;;;13.42;69.72;94991.98;1764245;80;21128;-82
2021/11/04 07:17:46;;;;;;;3.12;1.77;;;;;;;13.52;68.62;94967.91;1760980;80;21143;-82
2021/11/04 07:20:15;;;;;;;4.95;2.30;;;;;;;13.63;68.55;94961.81;1793340;77;21105;-82
2021/11/04 07:22:46;;;;;;;1.77;1.50;;;;;;;13.70;68.80;94939.50;1782646;79;21501;-82
2021/11/04 07:25:14;;;;;;;2.20;1.67;;;;;;;13.69;68.16;94940.02;1800334;78;21083;-82
2021/11/04 07:27:54;;;;;;;1.82;1.57;;;;;;;13.77;68.10;94937.52;1814461;77;21074;-82
2021/11/04 07:30:20;;;;;;;2.55;1.77;;;;;;;13.82;67.14;94926.63;1814888;77;21414;-82
2021/11/04 07:32:55;;;;;;;2.40;1.90;;;;;;;13.87;67.98;94934.30;1779223;80;21134;-82
2021/11/04 07:35:24;;;;;;;2.25;1.60;;;;;;;13.88;67.19;94931.44;1780317;80;21104;-82
2021/11/04 07:37:49;;;;;;;2.20;1.60;;;;;;;13.92;67.71;94910.86;1780641;80;21028;-82
2021/11/04 07:40:17;;;;;;;2.67;1.60;;;;;;;13.94;67.56;94904.88;1829320;77;21418;-83
2021/11/04 07:42:43;;;;;;;3.27;1.57;;;;;;;13.95;67.26;94915.09;1834378;77;21216;-82
2021/11/04 07:45:09;;;;;;;2.98;1.77;;;;;;;14.00;67.47;94918.31;1799135;78;21058;-82
2021/11/04 07:47:37;;;;;;;2.25;1.37;;;;;;;14.01;66.83;94912.06;1781962;80;21481;-83
2021/11/04 07:50:05;;;;;;;2.70;1.25;;;;;;;14.07;66.97;94903.26;1780441;80;21067;-82
2021/11/04 07:52:31;;;;;;;3.20;1.60;;;;;;;14.14;67.53;94906.48;1792825;79;21067;-82
2021/11/04 07:55:01;;;;;;;1.60;1.20;;;;;;;14.18;67.07;94878.87;1795321;79;21101;-82
2021/11/04 07:57:28;;;;;;;1.67;1.20;;;;;;;14.22;67.01;94891.72;1786537;79;21123;-82
2021/11/04 07:59:54;;;;;;;1.47;1.00;;;;;;;14.31;65.62;94865.45;1760674;79;21045;-82
2021/11/04 08:02:19;;;;;;;1.85;1.62;;;;;;;14.41;65.03;94864.28;1789645;77;21019;-82
2021/11/04 08:04:45;;;;;;;2.12;1.20;;;;;;;14.50;65.12;94879.59;1770934;77;21102;-83
2021/11/04 08:07:11;;;;;;;1.47;1.15;;;;;;;14.56;65.35;94877.30;1771688;78;21106;-83
2021/11/04 08:09:37;;;;;;;1.87;1.00;;;;;;;14.61;65.33;94874.22;1785689;78;21094;-83
2021/11/04 08:12:04;;;;;;;1.72;1.20;;;;;;;14.66;65.17;94891.81;1786251;78;21102;-82
2021/11/04 08:14:30;;;;;;;1.37;1.00;;;;;;;14.72;65.12;94889.52;1772207;79;21395;-82
2021/11/04 08:16:55;;;;;;;1.95;1.15;;;;;;;14.82;65.20;94888.34;1800305;77;21066;-83
2021/11/04 08:19:21;;;;;;;1.37;0.80;;;;;;;14.88;64.32;94875.59;1785853;79;21023;-83
2021/11/04 08:21:47;;;;;;;1.00;0.78;;;;;;;14.97;64.55;94870.21;1763371;79;21059;-83
2021/11/04 08:24:12;;;;;;;1.57;0.78;;;;;;;15.04;64.86;94857.45;1781322;80;21435;-83
2021/11/04 08:26:38;;;;;;;1.72;1.12;;;;;;;15.11;63.96;94830.56;1782227;79;20997;-83
2021/11/04 08:29:04;;;;;;;1.40;0.90;;;;;;;15.18;63.93;94850.79;1803605;77;21075;-83
2021/11/04 08:31:30;;;;;;;1.37;0.98;;;;;;;15.25;63.52;94850.06;1789846;78;21415;-83
2021/11/04 08:33:56;;;;;;;1.40;0.70;;;;;;;15.32;63.07;94848.05;1791585;77;21159;-82
2021/11/04 08:36:22;;;;;;;1.00;0.53;;;;;;;15.38;62.48;94830.03;1748549;80;21012;-83
2021/11/04 08:38:47;;;;;;;1.02;0.80;;;;;;;15.43;62.68;94831.38;1779176;79;21376;-83
2021/11/04 08:41:14;;;;;;;1.37;1.15;;;;;;;15.51;62.79;94838.79;1768732;79;21037;-83
2021/11/04 08:43:40;;;;;;;1.35;0.85;;;;;;;15.58;62.51;94841.97;1777868;79;21554;-83
2021/11/04 08:46:06;;;;;;;1.07;0.72;;;;;;;15.68;62.50;94872.72;1736704;81;21145;-83
2021/11/04 08:48:32;;;;;;;1.47;0.90;;;;;;;15.74;62.24;94869.09;1806474;78;21031;-83
2021/11/04 08:50:58;;;;;;;1.17;0.80;;;;;;;15.85;61.77;94855.56;1760231;79;21094;-83
2021/11/04 08:53:24;;;;;;;1.00;0.70;;;;;;;15.93;60.98;94869.48;1760230;80;21059;-83
2021/11/04 08:55:50;;;;;;;1.37;0.72;;;;;;;15.98;61.37;94887.88;1807825;77;21511;-83
2021/11/04 08:58:17;;;;;;;1.05;0.80;;;;;;;16.05;61.39;94872.72;1762942;80;21055;-83
2021/11/04 09:00:43;;;;;;;1.65;0.80;;;;;;;16.10;60.98;94874.06;1750019;79;21467;-83
2021/11/04 09:03:09;;;;;;;2.70;0.70;;;;;;;16.13;60.03;94873.58;1784046;79;21126;-83
2021/11/04 09:05:37;;;;;;;0.78;0.50;;;;;;;16.19;60.62;94859.45;1791041;78;21131;-83
2021/11/04 09:08:05;;;;;;;1.10;0.70;;;;;;;16.30;60.99;94886.52;1787603;78;21100;-83
2021/11/04 09:10:31;;;;;;;0.98;0.42;;;;;;;16.38;59.88;94859.81;1808117;79;21043;-83
2021/11/04 09:12:57;;;;;;;1.02;0.70;;;;;;;16.38;59.79;94868.98;1781744;77;21106;-83
2021/11/04 09:15:22;;;;;;;1.00;0.70;;;;;;;16.35;59.95;94887.06;1804086;79;21127;-83
2021/11/04 09:17:48;;;;;;;0.50;0.45;;;;;;;16.28;60.48;94888.61;1796115;78;21369;-83
2021/11/04 09:20:17;;;;;;;0.95;0.70;;;;;;;16.25;59.65;94885.68;1776245;80;21036;-83
2021/11/04 09:22:48;;;;;;;1.40;0.80;;;;;;;16.19;60.13;94931.52;1767281;80;21375;-83
2021/11/04 09:25:17;;;;;;;1.05;0.62;;;;;;;16.18;60.50;94889.32;1747940;80;21154;-83
2021/11/04 09:27:43;;;;;;;1.70;0.65;;;;;;;16.19;60.72;94902.69;1768371;80;21103;-83
2021/11/04 09:30:09;;;;;;;0.80;0.50;;;;;;;16.22;60.78;94898.77;1784198;78;21121;-83
2021/11/04 09:32:35;;;;;;;0.70;0.40;;;;;;;16.22;60.85;94883.05;1738972;80;21089;-83
2021/11/04 09:35:02;;;;;;;1.02;0.42;;;;;;;16.21;60.91;94888.81;1706764;80;21030;-83
2021/11/04 09:37:28;;;;;;;1.15;0.55;;;;;;;16.21;60.84;94884.88;1764754;79;21547;-83
2021/11/04 09:39:53;;;;;;;0.95;0.50;;;;;;;16.22;60.41;94885.67;1762931;78;21117;-83
2021/11/04 09:42:21;;;;;;;1.30;0.68;;;;;;;16.19;60.43;94885.66;1770722;79;21157;-83
2021/11/04 09:44:47;;;;;;;1.45;0.70;;;;;;;16.20;60.78;94872.03;1766410;80;21546;-83
2021/11/04 09:47:13;;;;;;;1.35;0.80;;;;;;;16.19;61.13;94861.28;1807935;78;21036;-83
2021/11/04 09:49:40;;;;;;;1.10;0.70;;;;;;;16.20;61.28;94857.63;1758936;80;21163;-82
2021/11/04 09:52:06;;;;;;;1.12;0.68;;;;;;;16.19;61.22;94866.53;1784900;79;21603;-83
2021/11/04 09:54:32;;;;;;;1.10;0.70;;;;;;;16.20;61.74;94858.93;1787213;79;21402;-83
2021/11/04 09:56:57;;;;;;;1.37;0.80;;;;;;;16.19;60.83;94834.56;1740651;80;21017;-83
2021/11/04 09:59:23;;;;;;;1.05;0.70;;;;;;;16.24;60.79;94834.31;1749073;80;21465;-83
2021/11/04 10:01:49;;;;;;;1.20;0.70;;;;;;;16.28;61.09;94851.13;1747457;80;21160;-83
2021/11/04 10:04:18;;;;;;;0.95;0.60;;;;;;;16.33;61.21;94847.22;1762856;78;21087;-83
2021/11/04 10:06:44;;;;;;;2.35;0.40;;;;;;;16.35;61.07;94853.77;1735428;81;21163;-83
2021/11/04 10:09:11;;;;;;;1.07;0.55;;;;;;;16.38;60.29;94858.50;1795772;79;21454;-83
2021/11/04 10:11:44;;;;;;;1.27;0.88;;;;;;;16.41;60.75;94863.23;1798123;77;21080;-83
2021/11/04 10:14:14;;;;;;;0.88;0.65;;;;;;;16.43;61.21;94864.28;1763481;80;21064;-83
2021/11/04 10:16:41;;;;;;;0.90;0.53;;;;;;;16.45;61.18;94870.87;1767996;80;21108;-83
2021/11/04 10:19:10;;;;;;;0.78;0.62;;;;;;;16.50;61.13;94879.28;1788990;77;21146;-83
2021/11/04 10:21:39;;;;;;;0.65;0.35;;;;;;;16.54;60.57;94882.17;1793874;79;21060;-83
2021/11/04 10:26:37;;;;;;;1.70;0.70;;;;;;;16.64;60.58;94857.32;1784233;79;21625;-83
2021/11/04 10:29:07;;;;;;;0.88;0.50;;;;;;;16.67;60.86;94864.17;1746432;81;21017;-83
2021/11/04 10:31:43;;;;;;;1.72;1.10;;;;;;;16.71;60.56;94860.52;1743797;81;21091;-83
2021/11/04 10:34:27;;;;;;;1.45;0.90;;;;;;;16.72;60.75;94871.27;1775466;79;21027;-83
2021/11/04 10:36:55;;;;;;;0.57;0.47;;;;;;;16.74;60.99;94858.16;1757393;81;21103;-83
2021/11/04 10:39:27;;;;;;;1.30;0.40;;;;;;;16.75;61.05;94864.98;1783132;79;21467;-83
2021/11/04 10:41:56;;;;;;;2.12;0.55;;;;;;;16.78;60.22;94885.48;1786920;79;21021;-83
2021/11/04 10:44:23;;;;;;;1.12;0.53;;;;;;;16.85;60.21;94868.17;1763844;79;21111;-83
2021/11/04 10:46:52;;;;;;;1.47;1.02;;;;;;;16.93;60.38;94866.91;1815469;77;21077;-83
2021/11/04 10:49:22;;;;;;;1.20;0.78;;;;;;;16.99;60.68;94885.54;1782747;77;21047;-83
2021/11/04 10:52:00;;;;;;;1.30;0.50;;;;;;;17.04;60.51;94878.98;1801518;78;21051;-83
2021/11/04 10:54:26;;;;;;;1.47;0.82;;;;;;;17.10;60.03;94890.57;1792179;78;21048;-83
2021/11/04 10:56:53;;;;;;;2.00;1.05;;;;;;;17.19;60.27;94880.86;1743696;81;21111;-83
2021/11/04 10:59:20;;;;;;;1.98;1.30;;;;;;;17.30;59.84;94880.64;1777782;79;21036;-83
2021/11/04 11:01:52;;;;;;;1.40;0.90;;;;;;;17.44;59.55;94891.95;1782505;79;22312;-83
2021/11/04 11:04:27;;;;;;;1.47;0.98;;;;;;;17.61;59.42;94878.05;1774981;80;21053;-83
2021/11/04 11:06:59;;;;;;;1.55;0.70;;;;;;;17.82;59.45;94886.75;1791374;79;21128;-83
2021/11/04 11:09:25;;;;;;;1.00;0.62;;;;;;;17.93;59.06;94869.41;1814330;77;21016;-83
2021/11/04 11:11:59;;;;;;;1.12;0.78;;;;;;;17.97;58.98;94867.04;1773888;79;21046;-83
2021/11/04 11:14:26;;;;;;;1.20;0.90;;;;;;;17.95;57.99;94873.09;1782343;78;21028;-83
2021/11/04 11:16:55;;;;;;;0.70;0.60;;;;;;;17.95;58.60;94874.40;1783938;77;21039;-83
2021/11/04 11:19:32;;;;;;;1.42;0.68;;;;;;;17.97;57.96;94869.66;1788673;77;21070;-83
2021/11/04 11:22:00;;;;;;;2.87;0.60;;;;;;;17.97;57.64;94876.23;1778788;78;21063;-84
2021/11/04 11:24:40;;;;;;;2.45;0.60;;;;;;;17.95;57.98;94865.98;1797877;77;21128;-84
2021/11/04 11:27:17;;;;;;;1.85;0.62;;;;;;;17.90;57.71;94869.95;1788785;78;21142;-84
2021/11/04 11:29:47;;;;;;;1.10;0.62;;;;;;;17.88;58.17;94899.61;1790913;79;21514;-84
2021/11/04 11:32:24;;;;;;;1.90;0.90;;;;;;;17.85;58.17;94909.86;1767159;80;21087;-84
2021/11/04 11:35:09;;;;;;;1.25;0.70;;;;;;;17.80;57.70;94921.17;1787319;80;21075;-84
2021/11/04 11:37:35;;;;;;;1.80;0.90;;;;;;;17.76;57.77;94915.39;1782862;80;21040;-84
2021/11/04 11:40:13;;;;;;;1.67;0.72;;;;;;;17.76;57.91;94928.00;1747141;80;21168;-84
2021/11/04 11:43:04;;;;;;;1.40;0.70;;;;;;;17.75;57.17;94933.52;1790484;78;21078;-85
2021/11/04 11:45:34;;;;;;;2.10;0.63;;;;;;;17.69;56.72;94950.56;1786322;78;21123;-84
2021/11/04 11:48:20;;;;;;;0.45;0.20;;;;;;;17.66;57.38;94940.56;1775836;80;22146;-84
2021/11/04 11:50:48;;;;;;;0.95;0.40;;;;;;;17.59;56.75;94940.56;1811745;77;21565;-84
2021/11/04 11:55:57;;;;;;;2.72;0.40;;;;;;;17.55;56.74;94961.28;1724729;80;21426;-84